Time;durP1;ratioP1;P1;durP2;ratioP2;P2;SDS_P1;SDS_P2;PMS_P1;PMS_P2;Temp;Humidity;BMP_temperature;BMP_pressure;BME280_temperature;BME280_humidity;BME280_pressure;Samples;Min_cycle;Max_cycle;Signal;HPM_P1;HPM_P2
2021/04/19 00:01:39;;;;;;;28.50;16.95;;;;;;;6.54;77.84;100035.00;1680266;85;21875;-81
2021/04/19 00:04:45;;;;;;;26.87;17.15;;;;;;;6.49;78.19;100030.03;1665731;85;21324;-81
2021/04/19 00:07:50;;;;;;;35.45;17.48;;;;;;;6.46;78.42;100028.16;1680042;85;21207;-81
2021/04/19 00:10:57;;;;;;;31.25;17.60;;;;;;;6.45;78.98;100028.67;1664224;85;21180;-81
2021/04/19 00:14:02;;;;;;;26.42;17.62;;;;;;;6.45;79.37;100025.95;1665763;85;21833;-81
2021/04/19 00:17:08;;;;;;;30.85;17.75;;;;;;;6.45;79.69;100016.95;1680083;84;21837;-82
2021/04/19 00:20:15;;;;;;;31.82;18.10;;;;;;;6.40;79.92;100000.61;1683963;83;21208;-81
2021/04/19 00:23:20;;;;;;;29.12;17.30;;;;;;;6.38;80.10;100005.33;1654820;85;21896;-81
2021/04/19 00:26:26;;;;;;;32.33;19.00;;;;;;;6.32;80.43;100007.83;1670580;86;21287;-81
2021/04/19 00:29:33;;;;;;;32.03;19.30;;;;;;;6.26;80.86;100002.52;1651139;86;21280;-81
2021/04/19 00:32:38;;;;;;;37.38;20.88;;;;;;;6.24;81.25;100014.03;1670582;86;21192;-81
2021/04/19 00:35:43;;;;;;;38.20;20.60;;;;;;;6.24;81.79;100007.75;1665748;85;21279;-81
2021/04/19 00:38:47;;;;;;;30.45;18.73;;;;;;;6.23;82.21;100005.54;1679886;84;21292;-81
2021/04/19 00:41:53;;;;;;;33.23;19.07;;;;;;;6.25;82.48;100009.45;1685423;85;21176;-81
2021/04/19 00:44:58;;;;;;;38.65;19.55;;;;;;;6.28;82.77;100007.79;1685217;85;21812;-81
2021/04/19 00:48:05;;;;;;;37.67;20.75;;;;;;;6.32;83.04;100001.89;1670709;86;21248;-81
2021/04/19 00:51:13;;;;;;;33.73;20.00;;;;;;;6.36;83.31;99995.14;1680097;85;21944;-82
2021/04/19 00:54:18;;;;;;;43.05;20.37;;;;;;;6.41;83.59;99991.95;1680106;85;21729;-81
2021/04/19 00:57:22;;;;;;;39.65;21.45;;;;;;;6.46;83.90;99990.12;1679861;85;21323;-81
2021/04/19 01:00:38;;;;;;;34.50;19.73;;;;;;;6.51;84.09;99993.22;1679372;85;22263;-82
2021/04/19 01:03:43;;;;;;;31.52;18.52;;;;;;;6.56;84.23;99993.59;1670701;86;21323;-82
2021/04/19 01:06:50;;;;;;;34.13;20.23;;;;;;;6.57;84.26;99991.22;1680114;85;21354;-81
2021/04/19 01:09:48;;;;;;;41.65;20.75;;;;;;;6.57;84.37;99983.06;1680195;85;21698;-81
2021/04/19 01:12:55;;;;;;;35.45;20.00;;;;;;;6.58;84.39;99982.05;1680142;85;21311;-81
2021/04/19 01:16:02;;;;;;;32.58;21.85;;;;;;;6.60;84.51;99988.19;1665570;85;21829;-81
2021/04/19 01:19:08;;;;;;;36.10;22.42;;;;;;;6.61;84.70;99983.09;1654834;86;21240;-82
2021/04/19 01:22:13;;;;;;;40.65;22.25;;;;;;;6.66;84.85;99992.47;1680144;85;21211;-82
2021/04/19 01:25:22;;;;;;;40.50;22.70;;;;;;;6.72;84.81;99986.90;1679992;85;21279;-82
2021/04/19 01:28:29;;;;;;;46.63;22.77;;;;;;;6.76;84.77;99987.44;1670762;86;21317;-82
2021/04/19 01:31:36;;;;;;;38.85;22.52;;;;;;;6.79;84.73;99985.77;1680118;85;21180;-81
2021/04/19 01:34:41;;;;;;;46.63;24.92;;;;;;;6.80;84.71;99985.60;1665456;85;22042;-81
2021/04/19 01:37:47;;;;;;;42.90;23.90;;;;;;;6.83;84.67;99983.09;1679933;85;21238;-82
2021/04/19 01:40:55;;;;;;;40.75;23.00;;;;;;;6.82;84.58;99976.80;1680115;85;21203;-82
2021/04/19 01:44:03;;;;;;;37.38;21.15;;;;;;;6.83;84.51;99979.01;1660496;85;21327;-82
2021/04/19 01:47:10;;;;;;;46.13;24.27;;;;;;;6.81;84.53;99980.51;1665962;85;21290;-81
2021/04/19 01:50:21;;;;;;;36.53;21.23;;;;;;;6.77;84.62;99970.96;1657319;85;21295;-82
2021/04/19 01:53:25;;;;;;;46.13;22.87;;;;;;;6.74;84.82;99970.45;1665632;85;21298;-82
2021/04/19 01:56:31;;;;;;;39.35;23.52;;;;;;;6.72;84.97;99979.25;1665347;85;22048;-81
2021/04/19 01:59:39;;;;;;;43.50;23.57;;;;;;;6.71;85.13;99976.20;1667120;85;21809;-82
2021/04/19 02:02:58;;;;;;;41.73;23.67;;;;;;;6.70;85.29;99969.91;1680197;85;21219;-82
2021/04/19 02:06:35;;;;;;;36.90;22.82;;;;;;;6.72;85.40;99976.53;1670704;86;21308;-82
2021/04/19 02:09:31;;;;;;;40.17;22.73;;;;;;;6.70;85.58;99975.34;1679996;85;21358;-81
2021/04/19 02:12:46;;;;;;;34.98;23.10;;;;;;;6.68;85.66;99977.86;1650063;86;22309;-82
2021/04/19 02:16:22;;;;;;;39.63;23.02;;;;;;;6.67;85.66;99979.73;1670800;86;21283;-82
2021/04/19 02:19:49;;;;;;;43.30;23.62;;;;;;;6.66;85.58;99978.88;1680295;85;21224;-82
2021/04/19 02:23:02;;;;;;;37.48;22.48;;;;;;;6.66;85.48;99985.67;1680293;85;21239;-82
2021/04/19 02:26:20;;;;;;;39.58;22.17;;;;;;;6.65;85.32;99984.48;1680174;85;21331;-82
2021/04/19 02:29:33;;;;;;;44.55;24.72;;;;;;;6.65;85.12;99988.56;1670737;86;21280;-82
2021/04/19 02:32:42;;;;;;;38.53;22.55;;;;;;;6.64;85.06;99985.50;1670335;86;21311;-82
2021/04/19 02:35:49;;;;;;;40.12;23.30;;;;;;;6.68;85.01;99987.38;1665462;85;21311;-82
2021/04/19 02:38:59;;;;;;;37.15;23.45;;;;;;;6.70;85.00;99988.94;1680009;85;21299;-82
2021/04/19 02:42:05;;;;;;;34.80;20.72;;;;;;;6.73;84.84;99990.47;1679324;85;21255;-82
2021/04/19 02:45:15;;;;;;;35.45;20.05;;;;;;;6.70;84.51;99988.09;1644410;85;21244;-82
2021/04/19 02:48:23;;;;;;;32.65;19.12;;;;;;;6.68;84.22;99999.13;1680347;85;21354;-82
2021/04/19 02:51:34;;;;;;;39.58;20.48;;;;;;;6.62;83.82;99991.59;1679120;83;21283;-81
2021/04/19 02:54:39;;;;;;;32.88;19.45;;;;;;;6.53;83.75;100000.18;1680080;85;21311;-82
2021/04/19 02:57:56;;;;;;;27.87;18.67;;;;;;;6.46;83.91;100002.34;1680110;85;21215;-82
2021/04/19 03:01:02;;;;;;;39.10;21.50;;;;;;;6.38;84.10;99999.89;1680196;85;21275;-82
2021/04/19 03:04:12;;;;;;;37.90;21.68;;;;;;;6.34;84.45;99990.86;1660224;85;21318;-82
2021/04/19 03:07:20;;;;;;;39.60;23.52;;;;;;;6.33;84.97;99994.59;1680134;83;21849;-82
2021/04/19 03:10:29;;;;;;;33.58;20.62;;;;;;;6.31;85.44;99991.19;1679985;85;21307;-81
2021/04/19 03:13:37;;;;;;;36.93;21.20;;;;;;;6.32;85.73;99992.89;1660547;85;21769;-82
2021/04/19 03:16:44;;;;;;;34.80;20.50;;;;;;;6.32;86.00;99992.38;1666235;85;21232;-82
2021/04/19 03:19:58;;;;;;;38.17;21.97;;;;;;;6.34;86.31;99988.98;1666369;85;21217;-82
2021/04/19 03:23:05;;;;;;;34.92;23.38;;;;;;;6.42;86.65;99986.00;1670015;86;21306;-82
2021/04/19 03:26:16;;;;;;;35.98;23.60;;;;;;;6.48;86.93;99986.73;1670514;86;21283;-82
2021/04/19 03:29:21;;;;;;;39.25;22.82;;;;;;;6.57;87.16;99982.55;1680122;85;21892;-82
2021/04/19 03:32:39;;;;;;;33.85;22.95;;;;;;;6.70;87.40;99988.09;1679854;85;21192;-82
2021/04/19 03:35:46;;;;;;;;;;;;;;;6.82;87.50;99990.87;1673175;86;21287;-82
2021/04/19 03:38:53;;;;;;;35.75;21.48;;;;;;;6.92;87.46;99997.08;1667080;85;20196;-82
2021/04/19 03:42:01;;;;;;;38.08;22.80;;;;;;;7.04;87.33;100002.57;1665651;85;21307;-82
2021/04/19 03:45:09;;;;;;;33.53;21.50;;;;;;;7.14;87.06;99996.50;1678643;84;21721;-82
2021/04/19 03:48:24;;;;;;;38.85;23.22;;;;;;;7.25;86.84;99996.75;1678058;85;21773;-82
2021/04/19 03:51:31;;;;;;;38.95;23.10;;;;;;;7.35;86.61;99998.84;1680106;85;21323;-82
2021/04/19 03:54:43;;;;;;;39.13;21.45;;;;;;;7.45;86.38;99985.61;1679968;85;21188;-82
2021/04/19 03:57:51;;;;;;;35.70;21.33;;;;;;;7.54;86.24;100000.45;1683683;85;21367;-82
2021/04/19 04:00:59;;;;;;;39.30;20.70;;;;;;;7.70;86.21;99999.64;1680204;85;21311;-82
2021/04/19 04:04:07;;;;;;;39.27;21.97;;;;;;;7.82;85.90;99998.33;1678688;85;21217;-82
2021/04/19 04:07:14;;;;;;;35.13;22.50;;;;;;;7.93;85.34;99999.88;1677725;84;21315;-82
2021/04/19 04:10:19;;;;;;;36.00;20.05;;;;;;;7.99;85.01;100001.07;1657144;85;21306;-82
2021/04/19 04:13:29;;;;;;;33.08;21.23;;;;;;;8.07;84.73;100008.75;1665839;85;21210;-82
2021/04/19 04:16:35;;;;;;;33.83;22.13;;;;;;;8.15;84.35;100009.29;1680115;85;21901;-82
2021/04/19 04:19:43;;;;;;;31.52;21.60;;;;;;;8.23;84.16;100005.19;1666056;85;21323;-82
2021/04/19 04:22:50;;;;;;;27.40;18.35;;;;;;;8.27;83.84;100007.92;1666048;85;21849;-82
2021/04/19 04:25:58;;;;;;;28.87;20.10;;;;;;;8.30;83.57;99999.94;1680049;85;21311;-82
2021/04/19 04:29:03;;;;;;;37.65;20.43;;;;;;;8.32;83.30;100001.97;1665591;85;21318;-82
2021/04/19 04:32:13;;;;;;;28.57;21.00;;;;;;;8.37;83.24;100001.83;1666188;85;21211;-82
2021/04/19 04:35:21;;;;;;;31.30;20.80;;;;;;;8.45;83.08;100012.73;1679984;85;21737;-82
2021/04/19 04:38:28;;;;;;;29.65;19.87;;;;;;;8.54;82.75;100012.75;1679715;85;21240;-82
2021/04/19 04:41:37;;;;;;;32.28;21.23;;;;;;;8.58;82.49;100006.79;1679902;85;21243;-82
2021/04/19 04:44:46;;;;;;;32.08;21.35;;;;;;;8.61;82.18;99998.76;1679758;85;21346;-82
2021/04/19 04:47:55;;;;;;;32.83;21.48;;;;;;;8.62;82.02;99999.98;1680106;85;21721;-82
2021/04/19 04:51:13;;;;;;;32.55;21.77;;;;;;;8.64;81.72;99998.42;1680199;85;21295;-82
2021/04/19 04:54:21;;;;;;;34.43;20.25;;;;;;;8.62;81.67;99997.77;1665036;85;21832;-82
2021/04/19 04:57:29;;;;;;;30.97;20.90;;;;;;;8.64;81.89;100006.61;1679905;85;21291;-82
2021/04/19 05:00:34;;;;;;;33.48;20.57;;;;;;;8.65;81.85;100003.70;1670535;86;21283;-82
2021/04/19 05:03:40;;;;;;;38.50;21.95;;;;;;;8.71;81.68;100003.55;1660259;85;21240;-82
2021/04/19 05:06:45;;;;;;;41.53;22.22;;;;;;;8.73;81.32;100006.09;1679957;85;21295;-82
2021/04/19 05:09:53;;;;;;;36.60;22.13;;;;;;;8.77;81.38;100002.01;1698488;84;21208;-82
2021/04/19 05:13:00;;;;;;;31.37;20.20;;;;;;;8.84;81.31;100003.00;1706281;83;21205;-82
2021/04/19 05:16:05;;;;;;;44.60;25.52;;;;;;;8.92;80.82;99995.66;1702595;84;21193;-82
2021/04/19 05:19:12;;;;;;;38.85;23.05;;;;;;;9.00;80.42;100001.62;1703580;84;21156;-82
2021/04/19 05:22:18;;;;;;;44.35;24.40;;;;;;;9.12;79.95;100000.73;1690109;83;21338;-82
2021/04/19 05:25:23;;;;;;;42.75;23.35;;;;;;;9.20;79.49;99995.27;1686017;83;21310;-81
2021/04/19 05:28:28;;;;;;;43.52;23.90;;;;;;;9.25;79.19;99993.37;1689835;83;21624;-82
2021/04/19 05:31:36;;;;;;;38.78;25.17;;;;;;;9.28;78.83;99989.79;1703478;83;21271;-82
2021/04/19 05:34:46;;;;;;;48.73;25.85;;;;;;;9.32;78.56;99988.93;1705668;82;21334;-82
2021/04/19 05:37:38;;;;;;;42.65;23.65;;;;;;;9.32;78.55;99993.87;1711924;81;21294;-82
2021/04/19 05:40:44;;;;;;;30.35;20.75;;;;;;;9.34;78.47;99993.17;1711014;83;21282;-82
2021/04/19 05:43:52;;;;;;;40.98;23.60;;;;;;;9.36;78.46;99989.77;1713567;83;21208;-82
2021/04/19 05:46:59;;;;;;;38.83;24.00;;;;;;;9.40;78.38;99997.91;1719392;81;21359;-83
2021/04/19 05:50:06;;;;;;;38.92;23.85;;;;;;;9.45;78.39;99996.02;1714812;82;21821;-82
2021/04/19 05:53:10;;;;;;;36.65;20.70;;;;;;;9.51;78.12;99993.13;1699835;83;21284;-82
2021/04/19 05:56:20;;;;;;;40.28;23.52;;;;;;;9.62;78.11;99995.45;1710901;82;21778;-82
2021/04/19 05:59:47;;;;;;;38.23;23.10;;;;;;;9.70;77.85;99991.32;1679694;84;21141;-82
2021/04/19 06:02:58;;;;;;;29.98;20.43;;;;;;;9.85;77.51;99990.89;1712118;82;21325;-82
2021/04/19 06:06:24;;;;;;;35.73;20.45;;;;;;;10.06;76.83;99987.50;1700747;82;21355;-82
2021/04/19 06:09:57;;;;;;;34.83;20.92;;;;;;;10.31;76.37;99992.34;1683106;83;21152;-82
2021/04/19 06:13:06;;;;;;;40.03;20.32;;;;;;;10.59;75.59;99997.25;1704116;82;21294;-81
2021/04/19 06:16:12;;;;;;;32.80;20.12;;;;;;;10.89;74.22;99992.69;1663887;84;21273;-81
2021/04/19 06:19:14;;;;;;;30.48;20.97;;;;;;;11.10;72.87;100000.16;1716963;82;21871;-82
2021/04/19 06:22:09;;;;;;;29.52;20.10;;;;;;;11.20;71.93;100006.23;1700481;84;22297;-83
2021/04/19 06:24:55;;;;;;;26.97;16.97;;;;;;;11.26;71.56;100007.69;1710722;82;21148;-83
2021/04/19 06:27:48;;;;;;;29.63;19.95;;;;;;;11.33;71.55;100005.55;1701409;82;21164;-83
2021/04/19 06:30:42;;;;;;;30.08;19.02;;;;;;;11.38;71.01;100010.79;1711178;82;21219;-83
2021/04/19 06:33:35;;;;;;;29.12;20.02;;;;;;;11.48;70.84;100009.17;1703158;84;21303;-83
2021/04/19 06:36:22;;;;;;;36.40;22.02;;;;;;;11.62;70.76;100007.42;1709959;83;21821;-83
2021/04/19 06:39:29;;;;;;;30.23;18.42;;;;;;;11.68;69.86;100010.27;1702811;82;21153;-83
2021/04/19 06:42:35;;;;;;;31.52;19.32;;;;;;;11.72;69.61;100010.75;1709651;83;21172;-82
2021/04/19 06:45:43;;;;;;;29.35;18.48;;;;;;;11.69;69.35;100007.02;1700542;84;21283;-83
2021/04/19 06:48:49;;;;;;;25.60;17.77;;;;;;;11.70;69.00;100009.55;1716845;82;21204;-83
2021/04/19 06:51:55;;;;;;;31.82;20.37;;;;;;;11.72;68.23;100008.01;1715534;83;21247;-83
2021/04/19 06:55:02;;;;;;;25.40;16.48;;;;;;;11.72;69.00;100014.34;1717850;82;21255;-83
2021/04/19 06:58:08;;;;;;;23.57;16.15;;;;;;;11.71;68.49;100018.09;1714140;82;21899;-83
2021/04/19 07:01:17;;;;;;;29.67;18.50;;;;;;;11.74;68.64;100022.35;1715211;82;21298;-83
2021/04/19 07:04:28;;;;;;;29.23;18.67;;;;;;;11.81;69.10;100021.94;1719801;82;21148;-83
2021/04/19 07:07:45;;;;;;;37.17;20.45;;;;;;;11.91;68.89;100021.14;1716981;82;21172;-83
2021/04/19 07:10:50;;;;;;;29.85;18.90;;;;;;;11.96;68.64;100013.71;1712089;82;21822;-83
2021/04/19 07:13:56;;;;;;;25.12;17.70;;;;;;;11.98;68.20;100015.20;1716353;82;21213;-82
2021/04/19 07:17:04;;;;;;;28.87;17.75;;;;;;;11.98;68.21;100011.09;1715470;82;21294;-83
2021/04/19 07:20:12;;;;;;;29.02;18.60;;;;;;;12.00;68.37;100010.39;1689843;83;21295;-82
2021/04/19 07:23:19;;;;;;;24.27;16.32;;;;;;;12.00;68.39;100010.92;1713960;83;21298;-83
2021/04/19 07:26:27;;;;;;;28.05;18.35;;;;;;;12.00;68.50;100009.55;1715993;82;21302;-81
2021/04/19 07:29:33;;;;;;;22.27;15.70;;;;;;;11.97;68.41;100007.18;1717028;82;21298;-81
2021/04/19 07:32:46;;;;;;;24.02;16.02;;;;;;;11.97;68.62;100003.91;1718297;82;21339;-82
2021/04/19 07:35:51;;;;;;;24.02;15.72;;;;;;;12.02;68.50;100004.70;1712513;82;21294;-82
2021/04/19 07:38:57;;;;;;;26.07;14.35;;;;;;;12.12;68.51;100000.28;1725436;81;21164;-81
2021/04/19 07:42:05;;;;;;;22.90;15.98;;;;;;;12.15;68.35;100000.75;1725533;81;21223;-82
2021/04/19 07:45:13;;;;;;;22.25;14.07;;;;;;;12.14;68.30;100005.03;1729453;81;21330;-82
2021/04/19 07:48:40;;;;;;;21.57;15.15;;;;;;;12.17;68.37;100002.77;1712532;82;21751;-82
2021/04/19 07:51:48;;;;;;;25.88;15.18;;;;;;;12.17;68.09;100004.66;1701883;82;21196;-82
2021/04/19 07:54:53;;;;;;;27.00;17.27;;;;;;;12.15;68.45;100002.65;1710567;82;21188;-82
2021/04/19 07:57:59;;;;;;;30.15;17.10;;;;;;;12.20;68.67;100001.02;1701290;82;21263;-81
2021/04/19 08:01:11;;;;;;;28.20;17.20;;;;;;;12.34;68.82;100002.01;1711368;82;21254;-81
2021/04/19 08:04:16;;;;;;;32.85;20.70;;;;;;;12.47;68.07;99992.55;1704587;82;21275;-82
2021/04/19 08:07:28;;;;;;;29.07;17.57;;;;;;;12.62;67.75;99997.11;1735414;81;21829;-82
2021/04/19 08:10:35;;;;;;;34.40;20.02;;;;;;;12.74;67.77;99998.25;1694039;82;21294;-81
2021/04/19 08:13:41;;;;;;;41.33;19.10;;;;;;;12.86;66.61;99998.05;1708603;82;21824;-81
2021/04/19 08:16:47;;;;;;;32.58;18.90;;;;;;;12.94;65.96;99996.54;1709011;84;21349;-82
2021/04/19 08:19:55;;;;;;;31.52;19.73;;;;;;;12.98;66.07;100000.56;1710698;82;21188;-82
2021/04/19 08:23:00;;;;;;;29.57;18.10;;;;;;;13.04;65.34;100001.16;1684439;82;21361;-81
2021/04/19 08:26:12;;;;;;;31.82;18.35;;;;;;;13.03;64.93;99995.84;1707853;82;21216;-82
2021/04/19 08:29:46;;;;;;;34.33;18.15;;;;;;;13.03;65.30;99998.09;1711636;82;21314;-82
2021/04/19 08:32:56;;;;;;;31.80;17.52;;;;;;;13.10;64.59;99997.28;1684184;84;21278;-82
2021/04/19 08:36:01;;;;;;;28.67;18.98;;;;;;;13.13;64.47;99988.66;1711000;83;21326;-84
2021/04/19 08:39:08;;;;;;;29.25;16.52;;;;;;;13.22;64.41;99986.08;1698666;82;21208;-82
2021/04/19 08:42:13;;;;;;;26.15;16.30;;;;;;;13.29;63.00;99986.45;1695678;84;21825;-82
2021/04/19 08:45:19;;;;;;;25.85;16.00;;;;;;;13.35;62.55;99980.67;1690213;84;21848;-82
2021/04/19 08:48:25;;;;;;;29.55;16.85;;;;;;;13.42;62.78;99991.19;1699736;84;21282;-82
2021/04/19 08:51:32;;;;;;;25.90;16.07;;;;;;;13.51;62.64;99995.47;1691848;84;21287;-82
2021/04/19 08:54:38;;;;;;;24.45;16.15;;;;;;;13.61;62.72;99992.87;1705503;82;21148;-82
2021/04/19 08:57:44;;;;;;;26.85;16.62;;;;;;;13.66;61.62;99991.73;1693675;83;21314;-82
2021/04/19 09:00:52;;;;;;;26.07;16.37;;;;;;;13.78;61.65;99989.58;1691772;83;21821;-82
2021/04/19 09:04:14;;;;;;;26.10;15.85;;;;;;;13.85;60.98;99990.97;1701679;84;21275;-82
2021/04/19 09:07:20;;;;;;;25.02;16.15;;;;;;;13.94;60.27;99991.11;1705579;82;21824;-82
2021/04/19 09:10:29;;;;;;;25.17;13.90;;;;;;;13.97;59.90;99982.96;1652825;84;21252;-82
2021/04/19 09:13:42;;;;;;;26.40;16.12;;;;;;;14.04;59.96;99986.59;1708032;84;21218;-82
2021/04/19 09:16:47;;;;;;;26.77;16.65;;;;;;;14.11;60.04;99985.23;1694366;83;21358;-82
2021/04/19 09:19:53;;;;;;;27.00;15.78;;;;;;;14.22;59.68;99988.77;1694959;83;21743;-82
2021/04/19 09:23:00;;;;;;;25.43;12.53;;;;;;;14.34;59.33;99977.45;1671779;82;21298;-82
2021/04/19 09:26:09;;;;;;;25.37;15.30;;;;;;;14.52;58.48;99983.23;1708267;82;21136;-82
2021/04/19 09:29:13;;;;;;;21.48;14.35;;;;;;;14.54;57.44;99981.67;1703714;84;21153;-82
2021/04/19 09:32:26;;;;;;;16.67;11.38;;;;;;;14.67;56.78;99973.92;1679506;84;21399;-82
2021/04/19 09:35:50;;;;;;;24.77;12.45;;;;;;;14.88;55.50;99976.48;1720424;81;21169;-82
2021/04/19 09:38:57;;;;;;;18.87;13.10;;;;;;;14.97;55.58;99972.45;1704911;83;21311;-82
2021/04/19 09:42:02;;;;;;;21.10;13.38;;;;;;;15.04;55.26;99971.91;1668198;84;21820;-82
2021/04/19 09:45:08;;;;;;;23.18;14.60;;;;;;;15.21;54.96;99979.20;1710929;82;21842;-82
2021/04/19 09:48:13;;;;;;;29.37;12.45;;;;;;;15.38;54.10;99973.22;1710773;82;21190;-83
2021/04/19 09:51:24;;;;;;;14.38;9.60;;;;;;;15.44;53.60;99973.76;1735691;81;21295;-82
2021/04/19 09:54:31;;;;;;;16.65;10.93;;;;;;;15.53;52.36;99975.22;1732410;81;21141;-82
2021/04/19 09:57:36;;;;;;;20.70;13.18;;;;;;;15.53;51.16;99976.59;1718505;83;21730;-83
2021/04/19 10:00:46;;;;;;;19.15;12.93;;;;;;;15.40;51.35;99983.52;1701815;82;21329;-82
2021/04/19 10:03:56;;;;;;;19.73;11.25;;;;;;;15.46;51.39;99977.13;1710282;82;21203;-83
2021/04/19 10:07:07;;;;;;;17.70;12.25;;;;;;;15.57;50.62;99978.70;1699972;82;21290;-83
2021/04/19 10:10:14;;;;;;;17.00;11.53;;;;;;;15.67;51.23;99985.70;1707356;82;21279;-83
2021/04/19 10:13:20;;;;;;;24.55;13.35;;;;;;;15.72;51.30;99981.76;1724619;81;21283;-83
2021/04/19 10:16:26;;;;;;;15.58;11.05;;;;;;;15.77;51.11;99988.30;1700705;83;21283;-82
2021/04/19 10:19:35;;;;;;;17.25;11.88;;;;;;;15.75;49.93;99984.06;1687331;83;21833;-83
2021/04/19 10:22:41;;;;;;;18.05;11.53;;;;;;;15.76;50.41;99988.00;1701325;82;21300;-83
2021/04/19 10:25:57;;;;;;;19.35;11.97;;;;;;;15.77;50.88;99991.06;1723942;81;21267;-82
2021/04/19 10:29:03;;;;;;;19.05;11.20;;;;;;;15.65;51.04;99984.52;1709198;82;21801;-82
2021/04/19 10:32:10;;;;;;;18.27;11.12;;;;;;;15.63;50.64;99989.38;1703378;84;21279;-83
2021/04/19 10:35:42;;;;;;;19.25;10.72;;;;;;;15.55;50.56;99987.70;1712213;82;21254;-82
2021/04/19 10:38:51;;;;;;;12.85;8.43;;;;;;;15.51;50.26;99998.84;1702547;84;21283;-82
2021/04/19 10:42:00;;;;;;;14.03;9.30;;;;;;;15.56;49.87;99999.03;1708678;83;21212;-82
2021/04/19 10:45:11;;;;;;;20.00;11.88;;;;;;;15.55;49.87;99993.22;1687782;84;21318;-82
2021/04/19 10:48:32;;;;;;;22.55;12.28;;;;;;;15.50;49.95;100003.20;1725121;83;21140;-82
2021/04/19 10:51:39;;;;;;;20.52;9.98;;;;;;;15.35;50.62;100002.07;1717819;83;21274;-82
2021/04/19 10:54:49;;;;;;;17.55;10.48;;;;;;;15.23;50.56;100010.13;1702993;84;21279;-83
2021/04/19 10:57:56;;;;;;;19.90;12.78;;;;;;;15.17;49.77;100004.64;1709767;83;21291;-82
2021/04/19 11:01:03;;;;;;;17.57;10.53;;;;;;;15.05;50.60;100001.13;1692606;84;21280;-82
2021/04/19 11:04:10;;;;;;;15.93;10.28;;;;;;;15.02;50.29;99997.45;1696712;83;21177;-82
2021/04/19 11:07:39;;;;;;;20.08;11.88;;;;;;;14.93;50.63;99997.34;1714916;83;21730;-83
2021/04/19 11:10:43;;;;;;;21.20;11.53;;;;;;;14.91;50.47;99999.98;1734001;81;21161;-82
2021/04/19 11:13:50;;;;;;;17.82;12.53;;;;;;;14.95;50.15;99999.88;1719791;82;21171;-82
2021/04/19 11:17:03;;;;;;;23.05;12.80;;;;;;;14.79;51.27;100008.05;1719718;82;21307;-82
2021/04/19 11:20:28;;;;;;;22.27;12.50;;;;;;;14.69;52.07;100001.58;1697442;83;21274;-82
2021/04/19 11:23:39;;;;;;;22.58;13.80;;;;;;;14.61;51.65;100000.40;1697212;83;21200;-82
2021/04/19 11:26:48;;;;;;;19.60;13.38;;;;;;;14.52;51.40;99995.62;1697829;83;21318;-82
2021/04/19 11:29:52;;;;;;;19.73;13.20;;;;;;;14.45;51.80;99998.03;1696058;83;21837;-82
2021/04/19 11:33:15;;;;;;;25.88;13.68;;;;;;;14.43;51.74;99996.84;1704685;84;21283;-82
2021/04/19 11:36:21;;;;;;;19.92;13.55;;;;;;;14.43;51.54;99997.38;1723182;82;21251;-82
2021/04/19 11:39:28;;;;;;;22.85;12.33;;;;;;;14.44;51.63;99991.65;1712124;82;21235;-82
2021/04/19 11:42:43;;;;;;;21.35;11.78;;;;;;;14.43;51.80;99991.34;1698939;84;21307;-82
2021/04/19 11:45:48;;;;;;;18.67;12.75;;;;;;;14.44;51.89;99983.92;1707718;83;21347;-82
2021/04/19 11:48:56;;;;;;;16.17;10.95;;;;;;;14.49;51.42;99985.55;1688753;84;21244;-82
2021/04/19 11:52:02;;;;;;;16.80;11.48;;;;;;;14.53;51.35;99982.17;1712675;83;21189;-82
2021/04/19 11:55:08;;;;;;;17.87;11.57;;;;;;;14.55;51.18;99982.83;1683726;82;21303;-82
2021/04/19 11:58:13;;;;;;;24.23;14.78;;;;;;;14.55;51.31;99973.73;1703529;84;21291;-82
2021/04/19 12:01:19;;;;;;;32.00;19.00;;;;;;;14.52;51.60;99973.60;1692146;83;21628;-82
2021/04/19 12:04:25;;;;;;;29.95;18.48;;;;;;;14.47;52.72;99969.76;1705451;84;21724;-82
2021/04/19 12:07:30;;;;;;;34.78;20.10;;;;;;;14.38;53.32;99969.11;1693589;83;21273;-82
2021/04/19 12:10:37;;;;;;;34.27;18.40;;;;;;;14.31;53.17;99969.64;1700267;82;21200;-82
2021/04/19 12:13:43;;;;;;;32.95;16.60;;;;;;;14.27;53.58;99964.23;1703558;82;21192;-82
2021/04/19 12:16:48;;;;;;;31.65;17.23;;;;;;;14.26;54.04;99962.55;1706806;82;21683;-82
2021/04/19 12:19:55;;;;;;;24.23;15.60;;;;;;;14.19;53.79;99966.64;1693351;84;21897;-82
2021/04/19 12:23:01;;;;;;;24.70;15.25;;;;;;;14.11;53.78;99962.70;1690126;84;21220;-82
2021/04/19 12:26:06;;;;;;;22.00;14.05;;;;;;;14.06;53.33;99968.82;1676519;84;21327;-82
2021/04/19 12:29:13;;;;;;;17.55;12.18;;;;;;;14.00;53.05;99970.19;1676088;84;21326;-82
2021/04/19 12:32:19;;;;;;;17.95;12.80;;;;;;;13.92;53.23;99968.45;1677761;84;21652;-82
2021/04/19 12:35:24;;;;;;;18.98;11.03;;;;;;;13.86;53.78;99966.55;1687989;83;21274;-83
2021/04/19 12:38:31;;;;;;;19.17;11.83;;;;;;;13.79;53.78;99977.53;1695090;84;22109;-82
2021/04/19 12:41:36;;;;;;;22.98;13.00;;;;;;;13.74;53.50;99970.42;1705172;84;21271;-82
2021/04/19 12:44:43;;;;;;;23.40;13.40;;;;;;;13.71;54.12;99966.70;1695910;84;21633;-82
2021/04/19 12:47:49;;;;;;;26.30;13.25;;;;;;;13.66;53.96;99964.25;1708149;82;21270;-82
2021/04/19 12:50:54;;;;;;;14.60;11.05;;;;;;;13.64;53.75;99967.19;1715972;83;21164;-83
2021/04/19 12:53:59;;;;;;;20.17;13.35;;;;;;;13.63;54.01;99963.28;1680094;82;21272;-83
2021/04/19 12:57:07;;;;;;;17.48;11.65;;;;;;;13.60;53.57;99964.55;1766052;81;21912;-83
2021/04/19 13:00:14;;;;;;;25.23;13.60;;;;;;;13.60;53.96;99949.94;1751895;81;21804;-82
2021/04/19 13:03:21;;;;;;;27.87;13.28;;;;;;;13.59;54.05;99955.12;1758295;79;21655;-82
2021/04/19 13:06:27;;;;;;;20.55;11.93;;;;;;;13.54;53.97;99952.45;1773374;81;21267;-82
2021/04/19 13:09:34;;;;;;;18.80;12.00;;;;;;;13.51;54.02;99958.38;1748891;81;21251;-82
2021/04/19 13:12:40;;;;;;;27.67;13.32;;;;;;;13.51;54.42;99955.63;1754415;81;21160;-82
2021/04/19 13:15:47;;;;;;;26.70;11.97;;;;;;;13.46;53.69;99949.90;1719342;81;21844;-81
2021/04/19 13:18:52;;;;;;;21.70;11.70;;;;;;;13.42;54.11;99949.98;1743321;79;21867;-82
2021/04/19 13:22:01;;;;;;;25.92;12.80;;;;;;;13.39;54.61;99942.66;1751622;81;21325;-81
2021/04/19 13:25:06;;;;;;;20.85;12.07;;;;;;;13.35;54.81;99942.74;1766273;81;21856;-82
2021/04/19 13:28:12;;;;;;;24.92;11.57;;;;;;;13.33;55.00;99941.58;1770247;81;21289;-81
2021/04/19 13:31:17;;;;;;;27.00;13.08;;;;;;;13.28;54.72;99942.19;1770975;79;21263;-82
2021/04/19 13:34:23;;;;;;;38.30;12.43;;;;;;;13.26;54.72;99945.65;1747247;81;21172;-81
2021/04/19 13:37:28;;;;;;;21.75;11.20;;;;;;;13.23;55.05;99946.08;1762961;81;21310;-82
2021/04/19 13:40:35;;;;;;;17.98;11.50;;;;;;;13.20;54.86;99946.44;1741531;82;21821;-82
2021/04/19 13:43:41;;;;;;;23.45;11.75;;;;;;;13.18;55.37;99949.08;1742608;82;21326;-82
2021/04/19 13:46:46;;;;;;;22.55;12.07;;;;;;;13.14;54.67;99939.55;1742417;82;21211;-82
2021/04/19 13:49:53;;;;;;;16.32;11.08;;;;;;;13.11;54.64;99935.81;1742163;82;21294;-82
2021/04/19 13:52:57;;;;;;;16.20;11.45;;;;;;;13.06;55.12;99929.55;1742297;82;21967;-82
2021/04/19 13:56:07;;;;;;;21.57;11.50;;;;;;;13.02;55.38;99926.36;1721287;82;21160;-82
2021/04/19 13:59:09;;;;;;;14.85;11.22;;;;;;;12.98;55.79;99919.57;1743518;82;21199;-82
2021/04/19 14:02:17;;;;;;;25.25;12.30;;;;;;;12.96;56.12;99923.59;1722223;82;21326;-82
2021/04/19 14:05:23;;;;;;;29.15;10.90;;;;;;;12.95;56.17;99930.13;1743503;82;21820;-82
2021/04/19 14:08:29;;;;;;;20.40;13.32;;;;;;;12.95;56.46;99930.13;1743752;82;21197;-82
2021/04/19 14:11:34;;;;;;;20.68;13.48;;;;;;;12.90;57.50;99929.36;1743829;82;21231;-82
2021/04/19 14:14:40;;;;;;;20.15;13.75;;;;;;;12.85;58.30;99920.04;1743746;82;21695;-82
2021/04/19 14:17:46;;;;;;;19.73;13.60;;;;;;;12.81;58.71;99922.33;1743731;82;21180;-82
2021/04/19 14:20:52;;;;;;;23.20;14.45;;;;;;;12.79;59.16;99920.29;1741457;82;21303;-81
2021/04/19 14:23:59;;;;;;;22.22;15.03;;;;;;;12.76;59.55;99929.78;1743582;82;21334;-82
2021/04/19 14:27:06;;;;;;;23.60;15.83;;;;;;;12.75;59.82;99934.08;1721450;82;21188;-82